sensor_id;sensor_type;location;lat;lon;timestamp;pressure;altitude;pressure_sealevel;temperature;humidity
5883;BME280;2967;51.488;6.618;2023-07-28T00:00:51;100257.78;;;18.29;100.00
5883;BME280;2967;51.488;6.618;2023-07-28T00:05:55;100261.16;;;18.31;100.00
5883;BME280;2967;51.488;6.618;2023-07-28T00:10:58;100256.13;;;18.36;100.00
5883;BME280;2967;51.488;6.618;2023-07-28T00:16:00;100254.81;;;18.40;100.00
5883;BME280;2967;51.488;6.618;2023-07-28T00:21:05;100234.97;;;18.25;100.00
5883;BME280;2967;51.488;6.618;2023-07-28T00:26:08;100239.16;;;18.28;100.00
5883;BME280;2967;51.488;6.618;2023-07-28T00:31:11;100255.19;;;18.20;100.00
5883;BME280;2967;51.488;6.618;2023-07-28T00:36:15;100249.44;;;18.32;100.00
5883;BME280;2967;51.488;6.618;2023-07-28T00:41:18;100245.34;;;18.20;100.00
5883;BME280;2967;51.488;6.618;2023-07-28T00:46:21;100250.84;;;18.19;100.00
5883;BME280;2967;51.488;6.618;2023-07-28T00:51:25;100162.13;;;17.72;100.00
5883;BME280;2967;51.488;6.618;2023-07-28T00:56:28;100235.59;;;18.11;100.00
5883;BME280;2967;51.488;6.618;2023-07-28T01:01:31;100244.63;;;18.18;100.00
5883;BME280;2967;51.488;6.618;2023-07-28T01:06:41;100237.31;;;18.20;100.00
5883;BME280;2967;51.488;6.618;2023-07-28T01:11:53;100231.38;;;18.09;100.00
5883;BME280;2967;51.488;6.618;2023-07-28T01:16:57;100252.78;;;18.09;100.00
5883;BME280;2967;51.488;6.618;2023-07-28T01:22:16;100186.94;;;17.82;100.00
5883;BME280;2967;51.488;6.618;2023-07-28T01:27:24;100255.78;;;18.31;100.00
5883;BME280;2967;51.488;6.618;2023-07-28T01:32:29;100251.91;;;18.34;100.00
5883;BME280;2967;51.488;6.618;2023-07-28T01:37:32;100254.81;;;18.40;100.00
5883;BME280;2967;51.488;6.618;2023-07-28T01:42:36;100238.03;;;18.30;100.00
5883;BME280;2967;51.488;6.618;2023-07-28T01:47:45;100257.66;;;18.39;100.00
5883;BME280;2967;51.488;6.618;2023-07-28T01:52:51;100257.66;;;18.39;100.00
5883;BME280;2967;51.488;6.618;2023-07-28T01:57:57;100229.56;;;18.17;100.00
5883;BME280;2967;51.488;6.618;2023-07-28T02:03:00;100249.88;;;18.28;100.00
5883;BME280;2967;51.488;6.618;2023-07-28T02:08:05;100240.88;;;18.29;100.00
5883;BME280;2967;51.488;6.618;2023-07-28T02:13:10;100246.06;;;18.30;100.00
5883;BME280;2967;51.488;6.618;2023-07-28T02:18:39;100022.63;;;16.92;100.00
5883;BME280;2967;51.488;6.618;2023-07-28T02:23:46;100187.66;;;17.92;100.00
5883;BME280;2967;51.488;6.618;2023-07-28T02:28:50;100190.66;;;17.97;100.00
5883;BME280;2967;51.488;6.618;2023-07-28T02:33:53;100265.16;;;18.35;100.00
5883;BME280;2967;51.488;6.618;2023-07-28T02:38:56;100268.84;;;18.34;100.00
5883;BME280;2967;51.488;6.618;2023-07-28T02:44:01;100279.22;;;18.29;100.00
5883;BME280;2967;51.488;6.618;2023-07-28T02:49:04;100200.19;;;17.92;100.00
5883;BME280;2967;51.488;6.618;2023-07-28T02:54:07;100271.94;;;18.22;100.00
5883;BME280;2967;51.488;6.618;2023-07-28T02:59:11;100224.50;;;18.06;100.00
5883;BME280;2967;51.488;6.618;2023-07-28T03:04:14;100282.81;;;18.28;100.00
5883;BME280;2967;51.488;6.618;2023-07-28T03:09:43;100253.00;;;18.15;100.00
5883;BME280;2967;51.488;6.618;2023-07-28T03:14:48;100291.41;;;18.32;100.00
5883;BME280;2967;51.488;6.618;2023-07-28T03:19:51;100283.91;;;18.35;100.00
5883;BME280;2967;51.488;6.618;2023-07-28T03:24:54;100285.75;;;18.35;100.00
5883;BME280;2967;51.488;6.618;2023-07-28T03:29:58;100298.50;;;18.41;100.00
5883;BME280;2967;51.488;6.618;2023-07-28T03:35:01;100259.72;;;18.19;100.00
5883;BME280;2967;51.488;6.618;2023-07-28T03:40:10;100246.44;;;18.10;100.00
5883;BME280;2967;51.488;6.618;2023-07-28T03:45:22;100236.28;;;17.88;100.00
5883;BME280;2967;51.488;6.618;2023-07-28T03:50:25;100303.50;;;18.36;100.00
5883;BME280;2967;51.488;6.618;2023-07-28T03:55:29;100300.63;;;18.29;100.00
5883;BME280;2967;51.488;6.618;2023-07-28T04:00:34;100307.25;;;18.25;100.00
5883;BME280;2967;51.488;6.618;2023-07-28T04:05:37;100291.34;;;18.24;100.00
5883;BME280;2967;51.488;6.618;2023-07-28T04:10:40;100271.38;;;18.10;100.00
5883;BME280;2967;51.488;6.618;2023-07-28T04:15:47;100282.81;;;18.20;100.00
5883;BME280;2967;51.488;6.618;2023-07-28T04:20:50;100261.31;;;18.04;100.00
5883;BME280;2967;51.488;6.618;2023-07-28T04:25:53;100033.09;;;16.60;100.00
5883;BME280;2967;51.488;6.618;2023-07-28T04:30:58;100282.81;;;18.20;100.00
5883;BME280;2967;51.488;6.618;2023-07-28T04:36:23;100309.38;;;18.39;100.00
5883;BME280;2967;51.488;6.618;2023-07-28T04:41:28;100315.53;;;18.32;100.00
5883;BME280;2967;51.488;6.618;2023-07-28T04:46:33;100321.72;;;18.32;100.00
5883;BME280;2967;51.488;6.618;2023-07-28T04:51:41;100275.88;;;18.10;100.00
5883;BME280;2967;51.488;6.618;2023-07-28T04:57:05;100279.56;;;18.09;100.00
5883;BME280;2967;51.488;6.618;2023-07-28T05:02:14;100310.34;;;18.38;100.00
5883;BME280;2967;51.488;6.618;2023-07-28T05:07:17;100279.66;;;18.25;100.00
5883;BME280;2967;51.488;6.618;2023-07-28T05:12:22;100277.47;;;18.20;100.00
5883;BME280;2967;51.488;6.618;2023-07-28T05:17:26;100259.34;;;18.14;100.00
5883;BME280;2967;51.488;6.618;2023-07-28T05:22:50;100246.72;;;17.99;100.00
5883;BME280;2967;51.488;6.618;2023-07-28T05:27:54;100308.34;;;18.32;100.00
5883;BME280;2967;51.488;6.618;2023-07-28T05:32:59;100302.97;;;18.32;100.00
5883;BME280;2967;51.488;6.618;2023-07-28T05:38:10;100291.53;;;18.22;100.00
5883;BME280;2967;51.488;6.618;2023-07-28T05:43:13;100278.22;;;18.13;100.00
5883;BME280;2967;51.488;6.618;2023-07-28T05:48:17;100340.06;;;18.53;100.00
5883;BME280;2967;51.488;6.618;2023-07-28T05:53:21;100370.78;;;18.66;100.00
5883;BME280;2967;51.488;6.618;2023-07-28T05:58:28;100371.44;;;18.68;100.00
5883;BME280;2967;51.488;6.618;2023-07-28T06:03:36;100348.41;;;18.50;100.00
5883;BME280;2967;51.488;6.618;2023-07-28T06:08:50;100350.97;;;18.51;100.00
5883;BME280;2967;51.488;6.618;2023-07-28T06:13:54;100340.34;;;18.42;100.00
5883;BME280;2967;51.488;6.618;2023-07-28T06:18:58;100363.72;;;18.65;100.00
5883;BME280;2967;51.488;6.618;2023-07-28T06:24:01;100395.50;;;18.85;100.00
5883;BME280;2967;51.488;6.618;2023-07-28T06:29:04;100398.81;;;18.79;100.00
5883;BME280;2967;51.488;6.618;2023-07-28T06:34:14;100370.47;;;18.69;100.00
5883;BME280;2967;51.488;6.618;2023-07-28T06:39:19;100367.78;;;18.69;100.00
5883;BME280;2967;51.488;6.618;2023-07-28T06:44:22;100401.94;;;19.08;100.00
5883;BME280;2967;51.488;6.618;2023-07-28T06:49:34;100404.97;;;19.05;100.00
5883;BME280;2967;51.488;6.618;2023-07-28T06:54:37;100249.63;;;18.13;100.00
5883;BME280;2967;51.488;6.618;2023-07-28T06:59:49;100364.03;;;18.95;100.00
5883;BME280;2967;51.488;6.618;2023-07-28T07:11:04;100418.81;;;19.34;100.00
5883;BME280;2967;51.488;6.618;2023-07-28T07:16:13;100433.91;;;19.43;100.00
5883;BME280;2967;51.488;6.618;2023-07-28T07:21:35;100368.28;;;19.14;100.00
5883;BME280;2967;51.488;6.618;2023-07-28T07:26:42;100431.09;;;19.53;100.00
5883;BME280;2967;51.488;6.618;2023-07-28T07:31:45;100404.09;;;19.46;100.00
5883;BME280;2967;51.488;6.618;2023-07-28T07:36:49;100295.94;;;18.73;100.00
5883;BME280;2967;51.488;6.618;2023-07-28T07:41:53;100417.16;;;19.49;100.00
5883;BME280;2967;51.488;6.618;2023-07-28T07:47:00;100443.03;;;19.82;100.00
5883;BME280;2967;51.488;6.618;2023-07-28T07:52:07;100424.41;;;19.65;100.00
5883;BME280;2967;51.488;6.618;2023-07-28T07:57:12;100434.16;;;19.82;100.00
5883;BME280;2967;51.488;6.618;2023-07-28T08:02:15;100391.66;;;19.53;100.00
5883;BME280;2967;51.488;6.618;2023-07-28T08:07:18;100454.47;;;20.00;100.00
5883;BME280;2967;51.488;6.618;2023-07-28T08:12:22;100461.72;;;20.16;100.00
5883;BME280;2967;51.488;6.618;2023-07-28T08:17:25;100443.22;;;19.97;100.00
5883;BME280;2967;51.488;6.618;2023-07-28T08:22:31;100435.00;;;19.90;100.00
5883;BME280;2967;51.488;6.618;2023-07-28T08:27:36;100469.78;;;20.16;100.00
5883;BME280;2967;51.488;6.618;2023-07-28T08:32:40;100481.88;;;20.12;100.00
5883;BME280;2967;51.488;6.618;2023-07-28T08:37:44;100465.72;;;19.96;100.00
5883;BME280;2967;51.488;6.618;2023-07-28T08:42:58;100476.28;;;19.97;100.00
5883;BME280;2967;51.488;6.618;2023-07-28T08:48:01;100486.38;;;20.03;100.00
5883;BME280;2967;51.488;6.618;2023-07-28T08:53:04;100498.94;;;20.03;100.00
5883;BME280;2967;51.488;6.618;2023-07-28T09:03:39;100505.03;;;20.21;100.00
5883;BME280;2967;51.488;6.618;2023-07-28T09:08:51;100491.28;;;20.32;100.00
5883;BME280;2967;51.488;6.618;2023-07-28T09:14:00;100459.03;;;20.16;100.00
5883;BME280;2967;51.488;6.618;2023-07-28T09:19:04;100494.78;;;20.56;100.00
5883;BME280;2967;51.488;6.618;2023-07-28T09:24:43;100497.13;;;20.67;100.00
5883;BME280;2967;51.488;6.618;2023-07-28T09:30:46;100455.84;;;20.44;100.00
5883;BME280;2967;51.488;6.618;2023-07-28T09:35:52;100498.78;;;20.76;100.00
5883;BME280;2967;51.488;6.618;2023-07-28T09:40:57;100490.22;;;20.81;100.00
5883;BME280;2967;51.488;6.618;2023-07-28T09:46:08;100501.97;;;20.88;100.00
5883;BME280;2967;51.488;6.618;2023-07-28T09:51:13;100512.41;;;20.91;100.00
5883;BME280;2967;51.488;6.618;2023-07-28T09:56:20;100509.72;;;20.67;100.00
5883;BME280;2967;51.488;6.618;2023-07-28T10:01:26;100522.31;;;20.58;100.00
5883;BME280;2967;51.488;6.618;2023-07-28T10:06:30;100441.41;;;20.21;100.00
5883;BME280;2967;51.488;6.618;2023-07-28T10:11:39;100343.22;;;19.87;100.00
5883;BME280;2967;51.488;6.618;2023-07-28T10:16:43;100513.75;;;20.87;100.00
5883;BME280;2967;51.488;6.618;2023-07-28T10:21:46;100520.78;;;20.88;100.00
5883;BME280;2967;51.488;6.618;2023-07-28T10:26:53;100385.19;;;20.20;100.00
5883;BME280;2967;51.488;6.618;2023-07-28T10:32:04;100489.53;;;20.95;100.00
5883;BME280;2967;51.488;6.618;2023-07-28T10:37:07;100485.94;;;21.10;100.00
5883;BME280;2967;51.488;6.618;2023-07-28T10:42:12;100499.84;;;21.30;100.00
5883;BME280;2967;51.488;6.618;2023-07-28T10:47:16;100379.13;;;20.80;100.00
5883;BME280;2967;51.488;6.618;2023-07-28T10:52:23;100462.97;;;21.38;100.00
5883;BME280;2967;51.488;6.618;2023-07-28T10:57:28;100476.16;;;21.56;100.00
5883;BME280;2967;51.488;6.618;2023-07-28T11:02:32;100364.50;;;20.83;100.00
5883;BME280;2967;51.488;6.618;2023-07-28T11:07:36;100515.59;;;21.79;100.00
5883;BME280;2967;51.488;6.618;2023-07-28T11:12:40;100380.78;;;20.97;100.00
5883;BME280;2967;51.488;6.618;2023-07-28T11:17:49;100494.94;;;21.63;100.00
5883;BME280;2967;51.488;6.618;2023-07-28T11:22:53;100519.03;;;21.95;100.00
5883;BME280;2967;51.488;6.618;2023-07-28T11:28:00;100519.78;;;22.04;100.00
5883;BME280;2967;51.488;6.618;2023-07-28T11:33:08;100508.75;;;22.21;100.00
5883;BME280;2967;51.488;6.618;2023-07-28T11:38:50;100509.16;;;22.55;100.00
5883;BME280;2967;51.488;6.618;2023-07-28T11:43:53;100423.63;;;22.27;100.00
5883;BME280;2967;51.488;6.618;2023-07-28T11:49:08;100476.84;;;22.84;100.00
5883;BME280;2967;51.488;6.618;2023-07-28T11:54:15;100372.59;;;22.25;100.00
5883;BME280;2967;51.488;6.618;2023-07-28T11:59:19;100506.09;;;23.24;100.00
5883;BME280;2967;51.488;6.618;2023-07-28T12:04:24;100483.47;;;23.25;100.00
5883;BME280;2967;51.488;6.618;2023-07-28T12:09:31;100499.09;;;23.44;100.00
5883;BME280;2967;51.488;6.618;2023-07-28T12:14:34;100500.84;;;23.37;100.00
5883;BME280;2967;51.488;6.618;2023-07-28T12:19:42;100480.09;;;23.38;100.00
5883;BME280;2967;51.488;6.618;2023-07-28T12:24:57;100452.25;;;23.37;100.00
5883;BME280;2967;51.488;6.618;2023-07-28T12:30:00;100486.31;;;23.53;100.00
5883;BME280;2967;51.488;6.618;2023-07-28T12:35:08;100419.44;;;23.19;100.00
5883;BME280;2967;51.488;6.618;2023-07-28T12:40:14;100509.91;;;23.94;100.00
5883;BME280;2967;51.488;6.618;2023-07-28T12:45:20;100351.38;;;23.09;100.00
5883;BME280;2967;51.488;6.618;2023-07-28T12:51:06;100477.06;;;23.62;100.00
5883;BME280;2967;51.488;6.618;2023-07-28T12:56:09;100382.13;;;22.94;100.00
5883;BME280;2967;51.488;6.618;2023-07-28T13:01:20;100340.41;;;22.75;100.00
5883;BME280;2967;51.488;6.618;2023-07-28T13:06:46;100498.41;;;23.71;100.00
5883;BME280;2967;51.488;6.618;2023-07-28T13:11:50;100510.47;;;23.75;100.00
5883;BME280;2967;51.488;6.618;2023-07-28T13:16:56;100376.56;;;22.95;100.00
5883;BME280;2967;51.488;6.618;2023-07-28T13:22:03;100372.44;;;22.99;100.00
5883;BME280;2967;51.488;6.618;2023-07-28T13:27:17;100507.78;;;23.90;100.00
5883;BME280;2967;51.488;6.618;2023-07-28T13:32:24;100505.78;;;23.98;100.00
5883;BME280;2967;51.488;6.618;2023-07-28T13:37:44;100476.44;;;24.16;100.00
5883;BME280;2967;51.488;6.618;2023-07-28T13:42:53;100507.13;;;24.51;100.00
5883;BME280;2967;51.488;6.618;2023-07-28T13:47:56;100459.25;;;24.03;100.00
5883;BME280;2967;51.488;6.618;2023-07-28T13:53:03;100274.94;;;22.67;100.00
5883;BME280;2967;51.488;6.618;2023-07-28T13:58:34;100508.69;;;23.82;100.00
5883;BME280;2967;51.488;6.618;2023-07-28T14:03:43;100331.28;;;22.62;100.00
5883;BME280;2967;51.488;6.618;2023-07-28T14:08:48;100471.06;;;23.45;100.00
5883;BME280;2967;51.488;6.618;2023-07-28T14:13:51;100500.06;;;23.72;100.00
5883;BME280;2967;51.488;6.618;2023-07-28T14:18:54;100438.09;;;24.06;100.00
5883;BME280;2967;51.488;6.618;2023-07-28T14:23:58;100488.97;;;24.45;100.00
5883;BME280;2967;51.488;6.618;2023-07-28T14:29:01;100470.63;;;24.61;100.00
5883;BME280;2967;51.488;6.618;2023-07-28T14:34:03;100466.44;;;24.59;100.00
5883;BME280;2967;51.488;6.618;2023-07-28T14:39:08;100431.34;;;24.44;100.00
5883;BME280;2967;51.488;6.618;2023-07-28T14:44:11;100439.81;;;24.56;100.00
5883;BME280;2967;51.488;6.618;2023-07-28T14:49:18;100489.13;;;24.58;100.00
5883;BME280;2967;51.488;6.618;2023-07-28T14:54:24;100454.28;;;24.27;100.00
5883;BME280;2967;51.488;6.618;2023-07-28T14:59:32;100474.19;;;24.20;100.00
5883;BME280;2967;51.488;6.618;2023-07-28T15:04:38;100458.03;;;23.84;100.00
5883;BME280;2967;51.488;6.618;2023-07-28T15:09:43;100499.84;;;23.88;100.00
5883;BME280;2967;51.488;6.618;2023-07-28T15:14:46;100478.50;;;23.58;100.00
5883;BME280;2967;51.488;6.618;2023-07-28T15:19:49;100497.84;;;23.61;100.00
5883;BME280;2967;51.488;6.618;2023-07-28T15:24:56;100421.56;;;23.09;100.00
5883;BME280;2967;51.488;6.618;2023-07-28T15:30:05;100492.28;;;23.48;100.00
5883;BME280;2967;51.488;6.618;2023-07-28T15:35:08;100512.09;;;23.55;100.00
5883;BME280;2967;51.488;6.618;2023-07-28T15:40:16;100446.22;;;23.06;100.00
5883;BME280;2967;51.488;6.618;2023-07-28T15:45:19;100461.84;;;23.11;100.00
5883;BME280;2967;51.488;6.618;2023-07-28T15:50:22;100448.66;;;22.87;100.00
5883;BME280;2967;51.488;6.618;2023-07-28T15:55:26;100500.59;;;23.18;100.00
5883;BME280;2967;51.488;6.618;2023-07-28T16:00:31;100514.19;;;23.24;100.00
5883;BME280;2967;51.488;6.618;2023-07-28T16:05:35;100446.69;;;22.66;100.00
5883;BME280;2967;51.488;6.618;2023-07-28T16:10:41;100503.66;;;23.00;100.00
5883;BME280;2967;51.488;6.618;2023-07-28T16:15:45;100513.50;;;22.93;100.00
5883;BME280;2967;51.488;6.618;2023-07-28T16:20:48;100488.00;;;22.81;100.00
5883;BME280;2967;51.488;6.618;2023-07-28T16:25:55;100507.81;;;23.03;100.00
5883;BME280;2967;51.488;6.618;2023-07-28T16:31:03;100385.75;;;22.43;100.00
5883;BME280;2967;51.488;6.618;2023-07-28T16:36:54;100307.28;;;22.23;100.00
5883;BME280;2967;51.488;6.618;2023-07-28T16:42:03;100491.16;;;23.43;100.00
5883;BME280;2967;51.488;6.618;2023-07-28T16:47:07;100479.72;;;23.41;100.00
5883;BME280;2967;51.488;6.618;2023-07-28T16:52:10;100441.28;;;23.10;100.00
5883;BME280;2967;51.488;6.618;2023-07-28T16:57:18;100426.03;;;23.02;100.00
5883;BME280;2967;51.488;6.618;2023-07-28T17:02:27;100477.91;;;23.27;100.00
5883;BME280;2967;51.488;6.618;2023-07-28T17:07:30;100482.81;;;23.23;100.00
5883;BME280;2967;51.488;6.618;2023-07-28T17:12:37;100480.13;;;23.23;100.00
5883;BME280;2967;51.488;6.618;2023-07-28T17:17:46;100444.38;;;22.92;100.00
5883;BME280;2967;51.488;6.618;2023-07-28T17:22:49;100467.38;;;23.17;100.00
5883;BME280;2967;51.488;6.618;2023-07-28T17:27:56;100470.16;;;23.24;100.00
5883;BME280;2967;51.488;6.618;2023-07-28T17:33:01;100480.47;;;23.35;100.00
5883;BME280;2967;51.488;6.618;2023-07-28T17:38:11;100489.34;;;23.29;100.00
5883;BME280;2967;51.488;6.618;2023-07-28T17:43:19;100481.06;;;23.16;100.00
5883;BME280;2967;51.488;6.618;2023-07-28T17:48:22;100468.28;;;22.95;100.00
5883;BME280;2967;51.488;6.618;2023-07-28T17:53:27;100470.16;;;22.95;100.00
5883;BME280;2967;51.488;6.618;2023-07-28T17:58:31;100459.81;;;22.84;100.00
5883;BME280;2967;51.488;6.618;2023-07-28T18:03:35;100453.56;;;22.69;100.00
5883;BME280;2967;51.488;6.618;2023-07-28T18:08:39;100497.22;;;23.01;100.00
5883;BME280;2967;51.488;6.618;2023-07-28T18:13:43;100502.97;;;22.98;100.00
5883;BME280;2967;51.488;6.618;2023-07-28T18:18:46;100509.28;;;22.91;100.00
5883;BME280;2967;51.488;6.618;2023-07-28T18:23:51;100393.91;;;22.20;100.00
5883;BME280;2967;51.488;6.618;2023-07-28T18:28:57;100455.84;;;22.43;100.00
5883;BME280;2967;51.488;6.618;2023-07-28T18:34:01;100342.66;;;21.69;100.00
5883;BME280;2967;51.488;6.618;2023-07-28T18:39:08;100504.22;;;22.59;100.00
5883;BME280;2967;51.488;6.618;2023-07-28T18:44:14;100489.72;;;22.37;100.00
5883;BME280;2967;51.488;6.618;2023-07-28T18:49:18;100433.97;;;22.01;100.00
5883;BME280;2967;51.488;6.618;2023-07-28T18:54:23;100501.06;;;22.33;100.00
5883;BME280;2967;51.488;6.618;2023-07-28T18:59:56;100510.22;;;22.24;100.00
5883;BME280;2967;51.488;6.618;2023-07-28T19:05:09;100513.00;;;22.16;100.00
5883;BME280;2967;51.488;6.618;2023-07-28T19:10:13;100496.34;;;21.90;100.00
5883;BME280;2967;51.488;6.618;2023-07-28T19:15:19;100543.22;;;22.03;100.00
5883;BME280;2967;51.488;6.618;2023-07-28T19:21:01;100163.38;;;19.79;100.00
5883;BME280;2967;51.488;6.618;2023-07-28T19:26:56;100431.81;;;21.44;100.00
5883;BME280;2967;51.488;6.618;2023-07-28T19:32:01;100518.00;;;21.96;100.00
5883;BME280;2967;51.488;6.618;2023-07-28T19:37:05;100484.47;;;21.76;100.00
5883;BME280;2967;51.488;6.618;2023-07-28T19:42:10;100497.75;;;21.78;100.00
5883;BME280;2967;51.488;6.618;2023-07-28T19:47:35;100506.34;;;21.81;100.00
5883;BME280;2967;51.488;6.618;2023-07-28T19:52:39;100520.97;;;21.79;100.00
5883;BME280;2967;51.488;6.618;2023-07-28T19:57:47;100516.78;;;21.76;100.00
5883;BME280;2967;51.488;6.618;2023-07-28T20:02:59;100269.34;;;20.23;100.00
5883;BME280;2967;51.488;6.618;2023-07-28T20:08:07;100302.56;;;20.30;100.00
5883;BME280;2967;51.488;6.618;2023-07-28T20:13:20;100483.09;;;21.42;100.00
5883;BME280;2967;51.488;6.618;2023-07-28T20:19:01;100320.47;;;20.45;100.00
5883;BME280;2967;51.488;6.618;2023-07-28T20:24:06;100489.50;;;21.41;100.00
5883;BME280;2967;51.488;6.618;2023-07-28T20:29:11;100532.66;;;21.63;100.00
5883;BME280;2967;51.488;6.618;2023-07-28T20:34:22;100298.72;;;20.24;100.00
5883;BME280;2967;51.488;6.618;2023-07-28T20:39:36;100526.28;;;21.65;100.00
5883;BME280;2967;51.488;6.618;2023-07-28T20:44:41;100505.91;;;21.54;100.00
5883;BME280;2967;51.488;6.618;2023-07-28T20:49:45;100523.59;;;21.65;100.00
5883;BME280;2967;51.488;6.618;2023-07-28T20:54:50;100328.53;;;20.45;100.00
5883;BME280;2967;51.488;6.618;2023-07-28T20:59:56;100534.69;;;21.62;100.00
5883;BME280;2967;51.488;6.618;2023-07-28T21:05:00;100531.00;;;21.55;100.00
5883;BME280;2967;51.488;6.618;2023-07-28T21:10:03;100511.16;;;21.48;100.00
5883;BME280;2967;51.488;6.618;2023-07-28T21:15:09;100540.38;;;21.58;100.00
5883;BME280;2967;51.488;6.618;2023-07-28T21:20:13;100537.03;;;21.57;100.00
5883;BME280;2967;51.488;6.618;2023-07-28T21:25:16;100544.31;;;21.48;100.00
5883;BME280;2967;51.488;6.618;2023-07-28T21:30:19;100552.91;;;21.44;100.00
5883;BME280;2967;51.488;6.618;2023-07-28T21:35:23;100553.75;;;21.44;100.00
5883;BME280;2967;51.488;6.618;2023-07-28T21:40:26;100548.97;;;21.24;100.00
5883;BME280;2967;51.488;6.618;2023-07-28T21:45:29;100536.50;;;21.31;100.00
5883;BME280;2967;51.488;6.618;2023-07-28T21:50:35;100476.28;;;20.85;100.00
5883;BME280;2967;51.488;6.618;2023-07-28T21:55:38;100531.81;;;21.17;100.00
5883;BME280;2967;51.488;6.618;2023-07-28T22:00:42;100479.94;;;20.84;100.00
5883;BME280;2967;51.488;6.618;2023-07-28T22:05:47;100532.34;;;21.12;100.00
5883;BME280;2967;51.488;6.618;2023-07-28T22:10:50;100535.38;;;21.01;100.00
5883;BME280;2967;51.488;6.618;2023-07-28T22:15:55;100428.97;;;20.36;100.00
5883;BME280;2967;51.488;6.618;2023-07-28T22:21:00;100482.16;;;20.57;100.00
5883;BME280;2967;51.488;6.618;2023-07-28T22:26:03;100533.38;;;20.79;100.00
5883;BME280;2967;51.488;6.618;2023-07-28T22:31:06;100535.22;;;20.79;100.00
5883;BME280;2967;51.488;6.618;2023-07-28T22:36:10;100532.88;;;20.76;100.00
5883;BME280;2967;51.488;6.618;2023-07-28T22:41:15;100521.63;;;20.72;100.00
5883;BME280;2967;51.488;6.618;2023-07-28T22:46:18;100440.22;;;20.24;100.00
5883;BME280;2967;51.488;6.618;2023-07-28T22:51:23;100505.50;;;20.64;100.00
5883;BME280;2967;51.488;6.618;2023-07-28T22:56:28;100460.06;;;20.31;100.00
5883;BME280;2967;51.488;6.618;2023-07-28T23:01:39;100466.75;;;20.35;100.00
5883;BME280;2967;51.488;6.618;2023-07-28T23:06:44;100460.72;;;20.25;100.00
5883;BME280;2967;51.488;6.618;2023-07-28T23:11:49;100459.69;;;20.18;100.00
5883;BME280;2967;51.488;6.618;2023-07-28T23:16:53;100447.13;;;20.10;100.00
5883;BME280;2967;51.488;6.618;2023-07-28T23:21:58;100441.59;;;20.12;100.00
5883;BME280;2967;51.488;6.618;2023-07-28T23:27:01;100490.06;;;20.42;100.00
5883;BME280;2967;51.488;6.618;2023-07-28T23:32:05;100349.59;;;19.54;100.00
5883;BME280;2967;51.488;6.618;2023-07-28T23:37:19;100438.34;;;20.00;100.00
5883;BME280;2967;51.488;6.618;2023-07-28T23:42:26;100276.78;;;19.09;100.00
5883;BME280;2967;51.488;6.618;2023-07-28T23:47:34;100476.50;;;20.20;100.00
5883;BME280;2967;51.488;6.618;2023-07-28T23:52:38;100474.13;;;20.09;100.00
5883;BME280;2967;51.488;6.618;2023-07-28T23:57:44;100482.53;;;20.14;100.00
